Time;durP1;ratioP1;P1;durP2;ratioP2;P2;SDS_P1;SDS_P2;PMS_P1;PMS_P2;Temp;Humidity;BMP_temperature;BMP_pressure;BME280_temperature;BME280_humidity;BME280_pressure;Samples;Min_cycle;Max_cycle;Signal;HPM_P1;HPM_P2
2022/03/18 06:02:53;;;;;;;25.40;15.13;;;7.80;99.90;;;;;;5372937;23;20051;-83
2022/03/18 06:05:19;;;;;;;25.48;15.98;;;7.80;99.90;;;;;;4930134;29;20038;-80
2022/03/18 06:13:34;;;;;;;23.73;16.02;;;7.80;99.90;;;;;;4963534;29;20051;-84
2022/03/18 06:15:59;;;;;;;25.95;16.20;;;7.80;99.90;;;;;;4946207;29;20039;-86
2022/03/18 06:18:25;;;;;;;28.92;16.75;;;7.80;99.90;;;;;;4935848;29;20044;-83
2022/03/18 06:20:55;;;;;;;23.33;15.30;;;7.90;99.90;;;;;;4923885;29;20325;-84
2022/03/18 06:23:21;;;;;;;25.55;16.77;;;7.90;99.90;;;;;;4905440;29;20041;-82
2022/03/18 06:26:07;;;;;;;26.25;16.35;;;7.90;99.90;;;;;;4911392;29;20028;-85
2022/03/18 06:28:33;;;;;;;23.67;16.35;;;7.90;99.90;;;;;;4906676;29;20051;-85
2022/03/18 06:30:59;;;;;;;26.27;16.67;;;7.90;99.90;;;;;;4946285;29;20040;-84
2022/03/18 06:33:27;;;;;;;30.55;17.45;;;7.90;99.90;;;;;;4857608;29;20251;-81
2022/03/18 06:35:53;;;;;;;28.53;17.30;;;7.90;99.90;;;;;;4868262;29;20037;-80
2022/03/18 06:38:19;;;;;;;25.10;16.40;;;8.00;99.90;;;;;;4863257;29;20053;-81
2022/03/18 06:41:16;;;;;;;29.10;16.90;;;8.00;99.90;;;;;;4870004;29;20138;-83
2022/03/18 06:43:54;;;;;;;30.45;17.08;;;8.00;99.90;;;;;;4885315;29;20097;-82
2022/03/18 06:46:39;;;;;;;27.20;17.17;;;8.00;99.90;;;;;;4882655;29;20056;-83
2022/03/18 06:49:06;;;;;;;30.27;17.98;;;8.10;99.90;;;;;;4854749;29;20042;-85
2022/03/18 06:51:35;;;;;;;33.28;19.27;;;8.10;99.90;;;;;;4874193;29;20229;-81
2022/03/18 06:54:01;;;;;;;28.38;17.52;;;8.20;99.90;;;;;;4866790;29;20038;-82
2022/03/18 06:57:02;;;;;;;29.63;19.45;;;8.20;99.90;;;;;;4873866;29;20037;-82
2022/03/18 06:59:41;;;;;;;31.55;19.02;;;8.20;99.90;;;;;;4806148;29;20046;-79
2022/03/18 07:02:11;;;;;;;34.35;19.75;;;8.30;99.90;;;;;;4784747;29;20099;-80
2022/03/18 07:05:09;;;;;;;31.08;19.42;;;8.40;99.90;;;;;;4803560;29;20087;-80
2022/03/18 07:07:35;;;;;;;;;;;8.40;99.90;;;;;;4829227;29;20046;-80
2022/03/18 07:10:00;;;;;;;;;;;8.50;99.90;;;;;;4832885;29;19989;-78
2022/03/18 07:12:29;;;;;;;;;;;8.50;99.90;;;;;;4833520;29;19949;-79
2022/03/18 07:14:56;;;;;;;;;;;8.50;99.90;;;;;;4831380;29;19909;-80
2022/03/18 07:20:13;;;;;;;;;;;8.60;99.90;;;;;;4862087;29;19947;-80
2022/03/18 07:22:41;;;;;;;;;;;8.60;99.90;;;;;;4865320;29;19915;-82
2022/03/18 07:28:17;;;;;;;;;;;8.70;99.90;;;;;;4868824;29;20208;-79
2022/03/18 07:30:44;;;;;;;;;;;8.80;99.90;;;;;;4848028;29;19954;-78
2022/03/18 07:33:10;;;;;;;;;;;8.80;99.90;;;;;;4836202;29;19920;-76
2022/03/18 07:35:36;;;;;;;;;;;8.90;99.90;;;;;;4914831;29;20193;-79
2022/03/18 07:38:03;;;;;;;;;;;9.00;99.90;;;;;;4912471;29;19910;-81
2022/03/18 07:43:47;;;;;;;;;;;9.00;99.90;;;;;;4893824;29;20158;-80
2022/03/18 07:46:13;;;;;;;;;;;9.10;99.90;;;;;;4921939;29;19911;-81
2022/03/18 07:48:41;;;;;;;;;;;9.20;99.90;;;;;;4931885;29;19931;-80
2022/03/18 07:51:07;;;;;;;;;;;9.30;99.90;;;;;;4903364;29;20211;-82
2022/03/18 07:53:33;;;;;;;;;;;9.40;99.90;;;;;;4912711;29;19970;-81
2022/03/18 07:56:02;;;;;;;;;;;9.50;99.90;;;;;;4899025;29;19911;-81
2022/03/18 07:58:31;;;;;;;;;;;9.60;99.90;;;;;;4887999;29;20009;-81
2022/03/18 08:00:57;;;;;;;;;;;9.60;99.90;;;;;;4902848;29;19918;-81
2022/03/18 08:03:22;;;;;;;;;;;9.70;99.90;;;;;;4909527;29;19954;-81
2022/03/18 08:05:48;;;;;;;;;;;9.90;99.90;;;;;;4917982;29;19929;-81
2022/03/18 08:08:16;;;;;;;;;;;9.90;99.90;;;;;;4921002;29;19944;-78
2022/03/18 08:10:42;;;;;;;;;;;9.90;99.90;;;;;;4917067;29;19978;-79
2022/03/18 08:13:08;;;;;;;;;;;9.80;99.90;;;;;;4898760;29;19911;-80
2022/03/18 08:15:34;;;;;;;;;;;9.80;99.90;;;;;;4899681;29;20528;-81
2022/03/18 08:18:02;;;;;;;;;;;9.90;99.90;;;;;;4910191;29;19911;-80
2022/03/18 08:20:30;;;;;;;;;;;10.10;99.90;;;;;;4887831;29;19907;-80
2022/03/18 08:22:56;;;;;;;;;;;10.30;99.90;;;;;;4913036;29;19911;-80
2022/03/18 08:25:21;;;;;;;;;;;10.40;99.90;;;;;;4914954;29;20229;-80
2022/03/18 08:27:48;;;;;;;;;;;10.60;99.90;;;;;;4901776;29;19919;-80
2022/03/18 08:30:14;;;;;;;;;;;10.70;99.90;;;;;;4899358;29;19922;-82
2022/03/18 08:32:40;;;;;;;;;;;10.70;99.90;;;;;;4891039;29;20109;-80
2022/03/18 08:35:07;;;;;;;;;;;10.60;99.90;;;;;;4886101;29;19915;-79
2022/03/18 08:40:17;;;;;;;;;;;10.70;99.90;;;;;;4913384;29;20011;-83
2022/03/18 08:42:43;;;;;;;;;;;10.90;99.90;;;;;;4887847;29;19942;-80
2022/03/18 08:45:08;;;;;;;;;;;10.90;99.80;;;;;;4910509;29;20001;-80
2022/03/18 08:47:35;;;;;;;;;;;10.90;99.70;;;;;;4917059;29;19915;-80
2022/03/18 08:50:00;;;;;;;;;;;10.90;99.90;;;;;;4894915;29;19915;-79
2022/03/18 08:52:26;;;;;;;;;;;11.10;99.20;;;;;;4917673;29;20220;-79
2022/03/18 08:54:52;;;;;;;;;;;11.10;99.30;;;;;;4920805;29;20149;-81
2022/03/18 08:57:17;;;;;;;;;;;11.20;99.10;;;;;;4918673;29;19911;-82
2022/03/18 08:59:43;;;;;;;;;;;11.20;98.80;;;;;;4908611;29;19911;-80
2022/03/18 09:02:12;;;;;;;;;;;11.10;98.60;;;;;;4884325;29;19971;-79
2022/03/18 09:04:37;;;;;;;;;;;11.00;98.60;;;;;;4922096;29;20239;-81
2022/03/18 09:07:03;;;;;;;;;;;10.90;98.80;;;;;;4916582;29;19944;-81
2022/03/18 09:09:31;;;;;;;;;;;10.90;98.70;;;;;;4915456;29;19998;-80
2022/03/18 09:12:00;;;;;;;;;;;11.00;98.60;;;;;;4911162;29;19911;-83
2022/03/18 09:14:26;;;;;;;;;;;11.10;98.20;;;;;;4915363;29;19997;-80
2022/03/18 09:16:51;;;;;;;;;;;11.10;97.70;;;;;;4905508;29;20648;-79
2022/03/18 09:19:20;;;;;;;;;;;11.20;97.90;;;;;;4915098;29;19911;-79
2022/03/18 09:21:48;;;;;;;;;;;11.30;97.60;;;;;;4917143;29;19994;-79
2022/03/18 09:24:14;;;;;;;;;;;11.30;97.30;;;;;;4918055;29;19927;-81
2022/03/18 09:26:40;;;;;;;;;;;11.40;97.40;;;;;;4922369;29;19911;-78
2022/03/18 09:29:06;;;;;;;;;;;11.40;96.90;;;;;;4925136;29;19915;-80
2022/03/18 09:31:32;;;;;;;;;;;11.30;96.70;;;;;;4929654;29;19935;-80
2022/03/18 09:34:00;;;;;;;;;;;11.20;96.90;;;;;;4920219;29;19903;-82
2022/03/18 09:36:32;;;;;;;;;;;11.20;97.10;;;;;;4925166;29;19923;-82
2022/03/18 09:39:04;;;;;;;;;;;11.20;96.50;;;;;;4896530;29;19926;-81
2022/03/18 09:41:30;;;;;;;;;;;11.30;96.50;;;;;;4918801;29;19953;-79
2022/03/18 09:43:57;;;;;;;;;;;11.30;96.50;;;;;;4914540;29;19922;-79
2022/03/18 09:46:22;;;;;;;;;;;11.40;96.60;;;;;;4913007;29;19990;-80
2022/03/18 09:48:48;;;;;;;;;;;11.50;96.30;;;;;;4901855;29;19977;-78
2022/03/18 09:51:14;;;;;;;;;;;11.50;95.90;;;;;;4912794;29;19958;-80
2022/03/18 09:53:40;;;;;;;;;;;11.50;95.80;;;;;;4895042;29;19930;-78
2022/03/18 09:56:08;;;;;;;;;;;11.40;95.90;;;;;;4905130;29;19919;-82
2022/03/18 09:58:34;;;;;;;;;;;11.40;95.70;;;;;;4915805;29;19911;-80
2022/03/18 10:01:03;;;;;;;;;;;11.40;95.80;;;;;;4917603;29;19986;-78
2022/03/18 10:03:44;;;;;;;;;;;11.80;95.80;;;;;;4928390;28;19962;-78
2022/03/18 10:06:13;;;;;;;;;;;12.20;95.00;;;;;;4910628;29;19950;-80
2022/03/18 10:08:38;;;;;;;;;;;12.40;94.60;;;;;;4935765;29;19927;-80
2022/03/18 10:14:25;;;;;;;;;;;12.60;94.00;;;;;;4867725;29;19923;-79
2022/03/18 10:16:51;;;;;;;;;;;12.60;93.40;;;;;;4862082;29;20121;-81
2022/03/18 10:19:24;;;;;;;;;;;12.50;93.40;;;;;;4865372;29;19912;-80
2022/03/18 10:21:55;;;;;;;;;;;12.50;93.50;;;;;;4869938;29;19916;-79
2022/03/18 10:24:27;;;;;;;;;;;12.70;93.20;;;;;;4865017;29;20186;-80
2022/03/18 10:27:14;;;;;;;;;;;12.60;92.90;;;;;;4843821;29;19920;-77
2022/03/18 10:29:44;;;;;;;;;;;12.60;92.90;;;;;;4863365;29;19960;-78
2022/03/18 10:32:11;;;;;;;;;;;13.00;92.60;;;;;;4865595;29;20073;-80
2022/03/18 10:37:22;;;;;;;;;;;13.60;92.00;;;;;;4862838;29;20271;-79
2022/03/18 10:39:51;;;;;;;;;;;13.80;91.80;;;;;;4862007;29;19912;-78
2022/03/18 10:42:20;;;;;;;;;;;13.80;91.40;;;;;;4869372;29;19953;-79
2022/03/18 10:44:49;;;;;;;;;;;13.40;91.30;;;;;;4858117;29;19912;-78
2022/03/18 10:47:27;;;;;;;;;;;13.40;91.40;;;;;;4861230;29;20117;-78
2022/03/18 10:49:54;;;;;;;;;;;13.50;91.50;;;;;;4848155;29;19948;-79
2022/03/18 10:52:23;;;;;;;;;;;13.50;91.50;;;;;;4936593;29;19981;-81
2022/03/18 10:54:54;;;;;;;;;;;13.70;91.50;;;;;;4939882;29;19918;-79
2022/03/18 10:57:22;;;;;;;;;;;13.90;91.30;;;;;;4912391;29;20247;-80
2022/03/18 10:59:48;;;;;;;;;;;13.90;91.00;;;;;;4929375;29;20152;-81
2022/03/18 11:02:15;;;;;;;;;;;13.90;91.00;;;;;;4931524;29;19922;-80
2022/03/18 11:04:41;;;;;;;;;;;14.40;90.30;;;;;;4919318;29;19935;-80
2022/03/18 11:12:43;;;;;;;;;;;14.80;89.10;;;;;;4934517;29;19922;-83
2022/03/18 11:15:15;;;;;;;;;;;14.50;88.70;;;;;;4912671;29;19911;-81
2022/03/18 11:17:45;;;;;;;;;;;14.30;89.30;;;;;;4926369;29;19942;-81
2022/03/18 11:20:13;;;;;;;;;;;14.20;89.70;;;;;;4916899;29;19958;-83
2022/03/18 11:22:39;;;;;;;;;;;14.10;90.00;;;;;;4908447;29;19929;-82
2022/03/18 11:25:09;;;;;;;;;;;14.10;90.30;;;;;;4864176;29;20097;-83
2022/03/18 11:27:41;;;;;;;;;;;14.10;89.80;;;;;;4910869;29;19922;-80
2022/03/18 11:30:20;;;;;;;;;;;14.10;89.90;;;;;;4917622;29;19990;-83
2022/03/18 11:33:04;;;;;;;;;;;14.00;90.00;;;;;;4903402;29;19930;-82
2022/03/18 11:35:52;;;;;;;;;;;14.10;90.10;;;;;;4924011;29;19919;-82
2022/03/18 11:38:28;;;;;;;;;;;14.00;90.20;;;;;;4898584;29;19915;-80
2022/03/18 11:40:58;;;;;;;;;;;14.20;90.20;;;;;;4937380;29;19911;-80
2022/03/18 11:43:29;;;;;;;;;;;14.50;89.90;;;;;;4911441;29;20025;-81
2022/03/18 11:46:16;;;;;;;;;;;14.90;89.00;;;;;;4931238;29;19911;-82
2022/03/18 11:48:53;;;;;;;;;;;15.30;87.60;;;;;;4884925;29;19945;-84
2022/03/18 11:51:25;;;;;;;;;;;15.30;86.50;;;;;;4911446;29;19950;-81
2022/03/18 11:53:53;;;;;;;;;;;15.50;87.20;;;;;;4916423;29;19961;-81
2022/03/18 11:56:22;;;;;;;;;;;15.50;85.80;;;;;;4928113;28;19957;-81
2022/03/18 11:58:49;;;;;;;;;;;15.60;84.90;;;;;;4920382;29;19950;-84
2022/03/18 12:01:45;;;;;;;;;;;15.60;85.30;;;;;;4932087;29;20167;-81
2022/03/18 12:04:31;;;;;;;;;;;15.80;85.10;;;;;;4872772;29;19922;-80
2022/03/18 12:07:15;;;;;;;;;;;15.80;85.00;;;;;;4937666;29;19922;-78
2022/03/18 12:09:51;;;;;;;;;;;15.70;85.10;;;;;;4936464;29;19911;-77
2022/03/18 12:12:18;;;;;;;;;;;15.90;84.80;;;;;;4915166;29;19927;-77
2022/03/18 12:14:43;;;;;;;;;;;16.30;84.40;;;;;;4928880;29;19910;-78
2022/03/18 12:17:09;;;;;;;;;;;16.10;83.50;;;;;;4931105;29;19918;-77
2022/03/18 12:19:36;;;;;;;;;;;15.80;83.80;;;;;;4913061;29;19919;-77
2022/03/18 12:22:03;;;;;;;;;;;15.30;85.10;;;;;;4918001;29;19910;-79
2022/03/18 12:24:29;;;;;;;;;;;15.20;85.70;;;;;;4931528;29;20106;-79
2022/03/18 12:27:00;;;;;;;;;;;15.40;85.60;;;;;;4919246;29;19915;-78
2022/03/18 12:29:26;;;;;;;;;;;15.70;85.40;;;;;;4927789;29;19911;-79
2022/03/18 12:32:06;;;;;;;;;;;15.50;84.80;;;;;;4919848;29;19911;-79
2022/03/18 12:34:36;;;;;;;;;;;15.20;85.40;;;;;;4934473;29;19911;-78
2022/03/18 12:37:03;;;;;;;;;;;14.60;86.30;;;;;;4925071;29;19959;-78
2022/03/18 12:39:29;;;;;;;;;;;14.80;86.70;;;;;;4935314;29;19919;-78
2022/03/18 12:42:12;;;;;;;;;;;15.00;86.30;;;;;;4921401;29;19914;-78
2022/03/18 12:44:45;;;;;;;;;;;15.10;85.60;;;;;;4914361;29;20080;-78
2022/03/18 12:47:11;;;;;;;;;;;15.30;85.10;;;;;;4938937;29;20086;-79
2022/03/18 12:49:37;;;;;;;;;;;15.70;84.00;;;;;;4904371;29;20124;-79
2022/03/18 12:52:13;;;;;;;;;;;15.80;83.20;;;;;;4924410;29;19911;-80
2022/03/18 12:54:39;;;;;;;;;;;16.10;82.70;;;;;;4941191;29;19963;-79
2022/03/18 12:57:14;;;;;;;;;;;16.10;82.80;;;;;;4929796;29;19918;-79
2022/03/18 12:59:40;;;;;;;;;;;16.30;82.20;;;;;;4922683;29;19946;-79
2022/03/18 13:02:06;;;;;;;;;;;16.00;82.20;;;;;;4940035;29;19957;-78
2022/03/18 13:04:33;;;;;;;;;;;15.90;82.10;;;;;;4944486;29;19918;-77
2022/03/18 13:07:01;;;;;;;;;;;15.60;82.30;;;;;;4927682;29;20164;-78
2022/03/18 13:09:26;;;;;;;;;;;16.00;81.80;;;;;;4938455;29;20239;-78
2022/03/18 13:11:52;;;;;;;;;;;16.80;81.10;;;;;;4943595;29;19974;-79
2022/03/18 13:14:27;;;;;;;;;;;17.00;79.20;;;;;;4948046;29;19977;-78
2022/03/18 13:16:53;;;;;;;;;;;17.60;78.30;;;;;;4932988;29;19925;-79
2022/03/18 13:19:35;;;;;;;;;;;18.40;75.90;;;;;;4935924;29;19911;-79
2022/03/18 13:22:00;;;;;;;;;;;18.70;74.60;;;;;;4940368;29;19910;-79
2022/03/18 13:24:26;;;;;;;;;;;18.90;74.10;;;;;;4953085;29;20021;-79
2022/03/18 13:26:54;;;;;;;;;;;19.30;74.00;;;;;;4950516;29;19989;-78
2022/03/18 13:35:15;;;;;;;;;;;19.40;72.90;;;;;;4946879;28;19918;-80
2022/03/18 13:37:40;;;;;;;;;;;18.70;73.90;;;;;;4916617;29;19914;-79
2022/03/18 13:40:07;;;;;;;;;;;18.40;74.70;;;;;;4935056;28;20014;-80
2022/03/18 13:42:32;;;;;;;;;;;18.30;75.10;;;;;;4938651;29;19974;-78
2022/03/18 13:44:58;;;;;;;;;;;18.60;74.70;;;;;;4942008;29;19907;-78
2022/03/18 13:47:26;;;;;;;;;;;18.80;74.10;;;;;;4939631;29;19919;-80
2022/03/18 13:49:54;;;;;;;;;;;18.50;74.00;;;;;;4933760;29;19917;-80
2022/03/18 13:52:29;;;;;;;;;;;17.60;76.00;;;;;;4939953;29;19919;-80
2022/03/18 13:54:55;;;;;;;;;;;17.20;76.90;;;;;;4918088;29;20074;-80
2022/03/18 13:57:21;;;;;;;;;;;16.80;77.90;;;;;;4935342;29;19963;-80
2022/03/18 13:59:54;;;;;;;;;;;16.70;78.30;;;;;;4919372;29;19986;-81
2022/03/18 14:02:22;;;;;;;;;;;16.60;77.70;;;;;;4939568;29;20156;-82
2022/03/18 14:04:50;;;;;;;;;;;16.50;78.10;;;;;;4952965;29;19950;-83
2022/03/18 14:07:16;;;;;;;;;;;16.80;77.90;;;;;;4937831;29;19919;-81
2022/03/18 14:09:55;;;;;;;;;;;17.00;77.80;;;;;;4939310;29;19970;-81
2022/03/18 14:12:21;;;;;;;;;;;17.40;76.10;;;;;;4922351;29;19915;-81
2022/03/18 14:14:47;;;;;;;;;;;17.40;74.00;;;;;;4915878;29;20014;-82
2022/03/18 14:17:16;;;;;;;;;;;17.30;75.00;;;;;;4949192;29;19910;-83
2022/03/18 14:19:59;;;;;;;;;;;17.40;74.60;;;;;;4951055;29;19930;-83
2022/03/18 14:22:30;;;;;;;;;;;17.60;74.40;;;;;;4917949;29;20093;-82
2022/03/18 14:24:56;;;;;;;;;;;17.40;75.80;;;;;;4915516;29;20161;-82
2022/03/18 14:27:21;;;;;;;;;;;17.50;74.10;;;;;;4906418;29;19926;-83
2022/03/18 14:29:47;;;;;;;;;;;17.90;73.30;;;;;;4917534;29;19966;-81
2022/03/18 14:32:50;;;;;;;;;;;17.80;73.20;;;;;;4928441;29;19915;-83
2022/03/18 14:36:06;;;;;;;;;;;17.70;73.90;;;;;;4878626;29;19984;-82
2022/03/18 15:02:14;;;;;;;;;;;15.80;79.60;;;;;;4948930;29;19934;-82
2022/03/18 15:04:46;;;;;;;;;;;15.70;79.90;;;;;;4918658;29;19943;-81
2022/03/18 15:07:24;;;;;;;;;;;15.90;80.10;;;;;;4946994;29;20116;-81
2022/03/18 15:09:52;;;;;;;;;;;16.00;79.20;;;;;;4963158;29;19918;-82
2022/03/18 15:12:21;;;;;;;;;;;15.90;79.50;;;;;;4932507;28;20196;-80
2022/03/18 15:14:47;;;;;;;;;;;15.90;79.50;;;;;;4944173;28;19922;-81
2022/03/18 15:17:54;;;;;;;;;;;15.90;78.80;;;;;;4939456;29;19917;-83
2022/03/18 15:20:22;;;;;;;;;;;15.90;78.60;;;;;;4908893;29;19966;-82
2022/03/18 15:23:12;;;;;;;;;;;15.80;79.10;;;;;;4925236;29;19910;-83
2022/03/18 15:25:42;;;;;;;;;;;15.80;79.60;;;;;;4938454;29;19965;-81
2022/03/18 15:31:30;;;;;;;;;;;15.90;78.60;;;;;;4925868;28;20404;-83
2022/03/18 15:34:45;;;;;;;;;;;16.10;78.00;;;;;;4859070;29;20149;-82
2022/03/18 15:37:15;;;;;;;;;;;15.90;76.50;;;;;;4921154;29;20189;-80
2022/03/18 15:39:41;;;;;;;;;;;15.60;77.40;;;;;;4920967;29;19985;-82
2022/03/18 15:42:07;;;;;;;;;;;15.20;78.10;;;;;;4920568;29;19911;-82
2022/03/18 15:44:35;;;;;;;;;;;15.00;79.20;;;;;;4908990;29;20265;-81
2022/03/18 15:47:20;;;;;;;;;;;14.80;80.00;;;;;;4905840;29;19950;-80
2022/03/18 15:49:47;;;;;;;;;;;14.80;80.40;;;;;;4905257;29;19915;-80
2022/03/18 15:52:14;;;;;;;;;;;14.80;80.10;;;;;;4921758;29;20081;-80
2022/03/18 15:54:41;;;;;;;;;;;14.50;80.60;;;;;;4906488;29;19978;-80
2022/03/18 15:57:18;;;;;;;;;;;14.60;80.50;;;;;;4923171;29;19911;-80
2022/03/18 15:59:44;;;;;;;;;;;14.70;80.50;;;;;;4926004;28;20097;-79
2022/03/18 16:02:10;;;;;;;;;;;14.70;81.00;;;;;;4961521;28;19910;-82
2022/03/18 16:04:36;;;;;;;;;;;14.80;80.70;;;;;;4960405;28;20210;-79
2022/03/18 16:07:14;;;;;;;;;;;14.90;80.40;;;;;;4960436;28;19931;-79
2022/03/18 16:09:40;;;;;;;;;;;14.90;80.20;;;;;;4959874;28;20153;-83
2022/03/18 16:12:06;;;;;;;;;;;14.80;80.10;;;;;;4958721;28;19950;-81
2022/03/18 16:14:34;;;;;;;;;;;14.60;80.40;;;;;;4960236;28;19921;-83
2022/03/18 16:16:59;;;;;;;;;;;14.40;80.70;;;;;;4959576;28;19917;-81
2022/03/18 16:19:25;;;;;;;;;;;14.40;81.20;;;;;;4958646;28;20180;-78
2022/03/18 16:21:52;;;;;;;;;;;14.30;81.10;;;;;;4959515;28;19910;-78
2022/03/18 16:24:18;;;;;;;;;;;14.50;80.80;;;;;;4929498;28;19910;-79
2022/03/18 16:27:09;;;;;;;;;;;14.40;81.30;;;;;;4955768;28;19917;-79
2022/03/18 16:29:35;;;;;;;;;;;14.40;82.70;;;;;;4938133;28;19911;-80
2022/03/18 16:32:03;;;;;;;;;;;14.10;83.50;;;;;;4959231;28;19922;-81
2022/03/18 16:34:28;;;;;;;;;;;13.90;84.60;;;;;;4959311;28;19910;-82
2022/03/18 16:36:57;;;;;;;;;;;13.60;85.00;;;;;;4959752;28;19925;-79
2022/03/18 16:39:22;;;;;;;;;;;13.50;86.00;;;;;;4958610;28;19914;-81
2022/03/18 16:41:48;;;;;;;;;;;13.30;85.90;;;;;;4921215;29;20145;-81
2022/03/18 16:44:14;;;;;;;;;;;13.20;86.50;;;;;;4949497;28;20168;-81
2022/03/18 16:49:31;;;;;;;;;;;12.80;87.80;;;;;;4927568;28;19922;-80
2022/03/18 16:52:00;;;;;;;;;;;12.70;88.00;;;;;;4943996;29;19921;-80
2022/03/18 16:54:27;;;;;;;;;;;12.40;88.60;;;;;;4937949;28;20156;-83
2022/03/18 16:56:54;;;;;;;;;;;12.40;89.10;;;;;;4956108;28;20240;-81
2022/03/18 16:59:20;;;;;;;;;;;12.20;89.70;;;;;;4946504;28;19950;-81
2022/03/18 17:01:45;;;;;;;;;;;12.10;90.00;;;;;;4956369;28;19969;-80
2022/03/18 17:04:15;;;;;;;;;;;12.00;90.30;;;;;;4961216;28;20185;-80
2022/03/18 17:06:46;;;;;;;;;;;12.00;90.30;;;;;;4922837;29;20113;-83
2022/03/18 17:09:16;;;;;;;;;;;11.80;90.60;;;;;;4910523;29;19938;-81
2022/03/18 17:11:45;;;;;;;;;;;11.70;91.10;;;;;;4902160;29;19923;-82
2022/03/18 17:14:16;;;;;;;;;;;11.60;90.90;;;;;;4881383;29;20026;-81
2022/03/18 17:16:43;;;;;;;;;;;11.60;91.10;;;;;;4907282;29;19912;-82
2022/03/18 17:19:16;;;;;;;;;;;11.50;91.10;;;;;;4910117;29;19911;-80
2022/03/18 17:22:08;;;;;;;;;;;11.40;91.30;;;;;;4897222;29;19911;-85
2022/03/18 17:24:34;;;;;;;;;;;11.30;91.60;;;;;;4887069;29;19904;-80
2022/03/18 17:27:00;;;;;;;;;;;11.20;91.70;;;;;;4911448;29;20002;-81
2022/03/18 17:29:29;;;;;;;;;;;11.10;91.90;;;;;;4886727;29;19927;-81
2022/03/18 17:31:54;;;;;;;;;;;10.90;92.20;;;;;;4881355;29;19974;-81
2022/03/18 17:34:22;;;;;;;;;;;10.90;92.30;;;;;;4881763;29;19934;-83
2022/03/18 17:37:37;;;;;;;;;;;10.80;92.50;;;;;;4889628;29;19999;-83
2022/03/18 17:43:42;;;;;;;;;;;10.70;92.70;;;;;;4909841;29;19918;-81
2022/03/18 17:46:10;;;;;;;;;;;10.60;93.00;;;;;;4909962;28;20148;-80
2022/03/18 17:48:56;;;;;;;;;;;10.50;93.30;;;;;;4911735;28;19918;-80
2022/03/18 18:00:55;;;;;;;;;;;10.20;94.30;;;;;;4933995;28;20184;-83
2022/03/18 18:03:22;;;;;;;;;;;10.20;94.30;;;;;;4938157;29;19977;-80
2022/03/18 18:09:17;;;;;;;;;;;10.10;94.50;;;;;;4958402;28;19925;-81
2022/03/18 18:11:54;;;;;;;;;;;10.10;94.80;;;;;;4930951;29;19994;-80
2022/03/18 18:14:39;;;;;;;;;;;10.10;94.70;;;;;;4920651;29;20292;-80
2022/03/18 18:24:16;;;;;;;;;;;9.80;95.40;;;;;;4859962;29;19980;-82
2022/03/18 18:42:48;;;;;;;;;;;9.50;96.10;;;;;;5756327;23;19915;-81
2022/03/18 18:45:35;;;;;;;;;;;9.50;96.10;;;;;;4924486;29;19911;-79
2022/03/18 18:51:41;;;;;;;;;;;9.30;96.30;;;;;;4902893;29;20208;-80
2022/03/18 18:54:18;;;;;;;;;;;9.30;96.40;;;;;;4904659;29;19988;-81
2022/03/18 18:57:05;;;;;;;;;;;9.20;96.50;;;;;;4902732;29;19911;-83
2022/03/18 18:59:33;;;;;;;;;;;9.20;96.40;;;;;;4881353;29;19918;-81
2022/03/18 19:09:17;;;;;;;;;;;9.10;96.70;;;;;;4813130;29;19976;-81
2022/03/18 19:12:01;;;;;;;;;;;9.10;96.60;;;;;;4814814;29;19951;-85
2022/03/18 19:14:30;;;;;;;;;;;9.10;96.60;;;;;;4812219;29;19981;-82
2022/03/18 19:20:36;;;;;;;;;;;9.00;96.80;;;;;;4768078;29;19943;-84
2022/03/18 19:26:06;;;;;;;;;;;9.00;96.90;;;;;;4818892;29;20266;-80
2022/03/18 19:28:32;;;;;;;;;;;9.00;96.90;;;;;;4814859;29;20237;-83
2022/03/18 19:30:58;;;;;;;;;;;8.90;97.10;;;;;;4870984;29;19915;-83
2022/03/18 19:36:42;;;;;;;;;;;8.70;97.50;;;;;;4891412;29;19920;-83
2022/03/18 19:43:44;;;;;;;;;;;8.60;97.80;;;;;;4851273;29;19981;-82
2022/03/18 19:50:38;;;;;;;;;;;8.50;98.10;;;;;;4796778;29;19944;-80
2022/03/18 19:53:51;;;;;;;;;;;;;;;;;;;;;
2022/03/18 20:02:48;;;;;;;;;;;8.30;98.70;;;;;;4828603;29;20213;-80
2022/03/18 20:05:48;;;;;;;;;;;8.20;98.90;;;;;;4847000;29;19973;-82
2022/03/18 20:11:32;;;;;;;;;;;8.10;99.10;;;;;;4850565;29;20117;-79
2022/03/18 20:14:24;;;;;;;;;;;8.10;98.90;;;;;;4845084;29;20353;-85
2022/03/18 20:17:11;;;;;;;;;;;8.10;98.90;;;;;;4850489;29;20182;-81
2022/03/18 20:46:45;;;;;;;;;;;7.50;99.90;;;;;;4969668;28;20403;-83
2022/03/18 20:56:57;;;;;;;;;;;7.30;99.90;;;;;;5927655;23;20767;31
2022/03/18 21:12:47;;;;;;;;;;;7.10;99.90;;;;;;4965164;28;19916;-81
2022/03/18 21:22:03;;;;;;;;;;;6.90;99.90;;;;;;5118683;23;19925;-82
2022/03/18 21:24:29;;;;;;;;;;;6.80;99.90;;;;;;4957018;28;20251;-79
2022/03/18 21:30:50;;;;;;;;;;;6.90;99.90;;;;;;4959955;28;19937;-83
2022/03/18 21:36:34;;;;;;;;;;;6.80;99.90;;;;;;4948567;28;19922;-83
2022/03/18 21:39:01;;;;;;;;;;;6.70;99.90;;;;;;4951843;28;19910;-81
2022/03/18 21:41:27;;;;;;;;;;;6.70;99.90;;;;;;4925920;29;19914;-83
2022/03/18 21:43:52;;;;;;;;;;;6.60;99.90;;;;;;4937273;28;20204;-81
2022/03/18 21:46:18;;;;;;;;;;;6.50;99.90;;;;;;4932679;28;19934;-81
2022/03/18 21:48:44;;;;;;;;;;;6.60;99.90;;;;;;4933711;28;19942;-81
2022/03/18 21:51:10;;;;;;;;;;;6.60;99.90;;;;;;4936998;28;20170;-83
2022/03/18 21:53:36;;;;;;;;;;;6.50;99.90;;;;;;4912623;28;22290;-82
2022/03/18 21:59:37;;;;;;;;;;;6.50;99.90;;;;;;4934639;28;20219;-81
2022/03/18 22:06:02;;;;;;;;;;;6.30;99.90;;;;;;4965710;28;20192;-82
2022/03/18 22:08:28;;;;;;;;;;;6.10;99.90;;;;;;4947432;28;19940;-84
2022/03/18 22:10:54;;;;;;;;;;;6.00;99.90;;;;;;4931779;28;20218;-83
2022/03/18 22:26:04;;;;;;;;;;;5.80;99.90;;;;;;5974133;23;19921;-79
2022/03/18 22:28:33;;;;;;;;;;;5.60;99.90;;;;;;4916032;28;19911;-81
2022/03/18 22:30:59;;;;;;;;;;;5.60;99.90;;;;;;4912712;29;20042;-79
2022/03/18 22:33:24;;;;;;;;;;;5.50;99.90;;;;;;4930931;29;19977;-80
2022/03/18 22:35:53;;;;;;;;;;;5.40;99.90;;;;;;4928961;29;19946;-80
2022/03/18 22:38:19;;;;;;;;;;;5.40;99.90;;;;;;4926503;28;19942;-81
2022/03/18 22:47:33;;;;;;;;;;;5.50;99.90;;;;;;4941644;29;19975;-80
2022/03/18 22:49:59;;;;;;;;;;;5.80;99.90;;;;;;4917354;28;19990;-80
2022/03/18 22:52:44;;;;;;;;;;;5.90;99.90;;;;;;4919285;28;19933;-81
2022/03/18 22:55:10;;;;;;;;;;;5.90;99.90;;;;;;4910382;28;20288;-80
2022/03/18 22:57:36;;;;;;;;;;;5.80;99.90;;;;;;4927243;29;20344;-79
2022/03/18 23:00:04;;;;;;;;;;;5.70;99.90;;;;;;4892531;28;19910;-80
2022/03/18 23:05:58;;;;;;;;;;;5.40;99.90;;;;;;4927401;28;19917;-80
2022/03/18 23:08:26;;;;;;;;;;;5.40;99.90;;;;;;4929690;28;20275;-80
2022/03/18 23:13:37;;;;;;;;;;;5.20;99.90;;;;;;4929060;29;19923;-82
2022/03/18 23:16:03;;;;;;;;;;;5.10;99.90;;;;;;4909750;29;19907;-80
2022/03/18 23:18:29;;;;;;;;;;;5.20;99.90;;;;;;4922848;29;20011;-81
2022/03/18 23:20:55;;;;;;;;;;;5.20;99.90;;;;;;4916112;28;20046;-80
2022/03/18 23:23:21;;;;;;;;;;;5.10;99.90;;;;;;4920674;28;19915;-83
2022/03/18 23:25:46;;;;;;;;;;;5.00;99.90;;;;;;4927820;29;19907;-82
2022/03/18 23:28:13;;;;;;;;;;;5.10;99.90;;;;;;4924913;29;19938;-84
2022/03/18 23:30:39;;;;;;;;;;;5.00;99.90;;;;;;4921620;28;20211;-83
2022/03/18 23:33:04;;;;;;;;;;;4.90;99.90;;;;;;4924954;29;20208;-83
2022/03/18 23:35:30;;;;;;;;;;;5.00;99.90;;;;;;4909525;28;19926;-81
2022/03/18 23:37:57;;;;;;;;;;;5.00;99.90;;;;;;4919737;29;19942;-82
2022/03/18 23:40:23;;;;;;;;;;;5.00;99.90;;;;;;4923977;29;19958;-84
2022/03/18 23:42:48;;;;;;;;;;;5.00;99.90;;;;;;4922506;28;19958;-83
2022/03/18 23:45:14;;;;;;;;;;;4.90;99.90;;;;;;4923722;29;20196;-87
2022/03/18 23:47:40;;;;;;;;;;;4.90;99.90;;;;;;4922815;28;19929;-81
2022/03/18 23:50:07;;;;;;;;;;;4.90;99.90;;;;;;4918988;28;20173;-81
2022/03/18 23:52:32;;;;;;;;;;;4.80;99.90;;;;;;4924410;28;19914;-83
2022/03/18 23:54:58;;;;;;;;;;;4.80;99.90;;;;;;4922675;29;19918;-81
2022/03/18 23:57:24;;;;;;;;;;;4.80;99.90;;;;;;4918899;29;20173;-81
2022/03/18 23:59:52;;;;;;;;;;;4.70;99.90;;;;;;4918084;28;19911;-80
